sensor_id;sensor_type;location;lat;lon;timestamp;P1;durP1;ratioP1;P2;durP2;ratioP2
22186;SDS011;11259;52.146;12.844;2022-07-06T00:02:04;5.90;;;1.70;;
22186;SDS011;11259;52.146;12.844;2022-07-06T00:04:29;4.32;;;1.40;;
22186;SDS011;11259;52.146;12.844;2022-07-06T00:06:55;5.25;;;1.63;;
22186;SDS011;11259;52.146;12.844;2022-07-06T00:09:20;4.78;;;1.65;;
22186;SDS011;11259;52.146;12.844;2022-07-06T00:11:46;10.40;;;1.83;;
22186;SDS011;11259;52.146;12.844;2022-07-06T00:14:13;3.97;;;2.00;;
22186;SDS011;11259;52.146;12.844;2022-07-06T00:16:38;5.65;;;1.80;;
22186;SDS011;11259;52.146;12.844;2022-07-06T00:19:03;3.38;;;1.63;;
22186;SDS011;11259;52.146;12.844;2022-07-06T00:21:29;2.42;;;1.73;;
22186;SDS011;11259;52.146;12.844;2022-07-06T00:23:54;5.15;;;2.20;;
22186;SDS011;11259;52.146;12.844;2022-07-06T00:26:19;4.03;;;1.42;;
22186;SDS011;11259;52.146;12.844;2022-07-06T00:28:45;4.25;;;2.15;;
22186;SDS011;11259;52.146;12.844;2022-07-06T00:31:12;1.95;;;1.50;;
22186;SDS011;11259;52.146;12.844;2022-07-06T00:33:37;4.97;;;1.60;;
22186;SDS011;11259;52.146;12.844;2022-07-06T00:36:03;5.65;;;1.70;;
22186;SDS011;11259;52.146;12.844;2022-07-06T00:38:29;3.55;;;1.90;;
22186;SDS011;11259;52.146;12.844;2022-07-06T00:40:54;4.25;;;1.83;;
22186;SDS011;11259;52.146;12.844;2022-07-06T00:43:19;5.95;;;1.80;;
22186;SDS011;11259;52.146;12.844;2022-07-06T00:45:45;5.78;;;2.00;;
22186;SDS011;11259;52.146;12.844;2022-07-06T00:48:11;4.95;;;1.83;;
22186;SDS011;11259;52.146;12.844;2022-07-06T00:50:37;5.43;;;1.80;;
22186;SDS011;11259;52.146;12.844;2022-07-06T00:53:03;4.05;;;1.73;;
22186;SDS011;11259;52.146;12.844;2022-07-06T00:55:30;2.55;;;1.83;;
22186;SDS011;11259;52.146;12.844;2022-07-06T00:57:58;3.58;;;1.70;;
22186;SDS011;11259;52.146;12.844;2022-07-06T01:00:27;3.42;;;1.70;;
22186;SDS011;11259;52.146;12.844;2022-07-06T01:02:52;3.10;;;1.70;;
22186;SDS011;11259;52.146;12.844;2022-07-06T01:05:19;4.00;;;1.67;;
22186;SDS011;11259;52.146;12.844;2022-07-06T01:07:45;3.55;;;1.80;;
22186;SDS011;11259;52.146;12.844;2022-07-06T01:10:12;2.95;;;1.70;;
22186;SDS011;11259;52.146;12.844;2022-07-06T01:12:39;3.28;;;1.83;;
22186;SDS011;11259;52.146;12.844;2022-07-06T01:15:06;1.90;;;1.50;;
22186;SDS011;11259;52.146;12.844;2022-07-06T01:17:33;3.85;;;1.80;;
22186;SDS011;11259;52.146;12.844;2022-07-06T01:20:07;4.32;;;1.50;;
22186;SDS011;11259;52.146;12.844;2022-07-06T01:22:33;2.00;;;1.48;;
22186;SDS011;11259;52.146;12.844;2022-07-06T01:24:58;4.25;;;1.65;;
22186;SDS011;11259;52.146;12.844;2022-07-06T01:27:24;2.42;;;1.52;;
22186;SDS011;11259;52.146;12.844;2022-07-06T01:29:49;3.53;;;1.75;;
22186;SDS011;11259;52.146;12.844;2022-07-06T01:32:14;3.25;;;1.73;;
22186;SDS011;11259;52.146;12.844;2022-07-06T01:34:40;3.95;;;1.60;;
22186;SDS011;11259;52.146;12.844;2022-07-06T01:37:07;3.00;;;1.48;;
22186;SDS011;11259;52.146;12.844;2022-07-06T01:39:32;1.92;;;1.60;;
22186;SDS011;11259;52.146;12.844;2022-07-06T01:41:57;3.20;;;1.50;;
22186;SDS011;11259;52.146;12.844;2022-07-06T01:44:23;2.95;;;1.83;;
22186;SDS011;11259;52.146;12.844;2022-07-06T01:46:48;3.10;;;1.75;;
22186;SDS011;11259;52.146;12.844;2022-07-06T01:49:13;3.75;;;1.85;;
22186;SDS011;11259;52.146;12.844;2022-07-06T01:51:39;3.63;;;1.95;;
22186;SDS011;11259;52.146;12.844;2022-07-06T01:54:06;3.33;;;1.90;;
22186;SDS011;11259;52.146;12.844;2022-07-06T01:56:31;4.25;;;2.08;;
22186;SDS011;11259;52.146;12.844;2022-07-06T01:58:56;3.63;;;2.15;;
22186;SDS011;11259;52.146;12.844;2022-07-06T02:01:21;3.92;;;2.28;;
22186;SDS011;11259;52.146;12.844;2022-07-06T02:03:47;6.22;;;2.03;;
22186;SDS011;11259;52.146;12.844;2022-07-06T02:06:12;2.67;;;2.10;;
22186;SDS011;11259;52.146;12.844;2022-07-06T02:08:38;3.33;;;1.80;;
22186;SDS011;11259;52.146;12.844;2022-07-06T02:11:05;6.13;;;1.98;;
22186;SDS011;11259;52.146;12.844;2022-07-06T02:13:31;4.55;;;1.98;;
22186;SDS011;11259;52.146;12.844;2022-07-06T02:15:56;12.60;;;2.50;;
22186;SDS011;11259;52.146;12.844;2022-07-06T02:18:21;3.75;;;2.08;;
22186;SDS011;11259;52.146;12.844;2022-07-06T02:20:47;3.25;;;2.28;;
22186;SDS011;11259;52.146;12.844;2022-07-06T02:23:12;5.22;;;2.60;;
22186;SDS011;11259;52.146;12.844;2022-07-06T02:25:38;5.05;;;2.05;;
22186;SDS011;11259;52.146;12.844;2022-07-06T02:28:04;4.13;;;2.30;;
22186;SDS011;11259;52.146;12.844;2022-07-06T02:30:30;3.90;;;2.35;;
22186;SDS011;11259;52.146;12.844;2022-07-06T02:32:55;4.15;;;2.30;;
22186;SDS011;11259;52.146;12.844;2022-07-06T02:35:20;3.45;;;2.30;;
22186;SDS011;11259;52.146;12.844;2022-07-06T02:37:46;6.95;;;2.47;;
22186;SDS011;11259;52.146;12.844;2022-07-06T02:40:11;6.78;;;2.45;;
22186;SDS011;11259;52.146;12.844;2022-07-06T02:42:37;4.15;;;2.45;;
22186;SDS011;11259;52.146;12.844;2022-07-06T02:45:04;4.03;;;2.63;;
22186;SDS011;11259;52.146;12.844;2022-07-06T02:47:30;7.72;;;2.78;;
22186;SDS011;11259;52.146;12.844;2022-07-06T02:49:56;4.90;;;2.47;;
22186;SDS011;11259;52.146;12.844;2022-07-06T02:52:21;7.20;;;3.00;;
22186;SDS011;11259;52.146;12.844;2022-07-06T02:54:46;8.05;;;2.70;;
22186;SDS011;11259;52.146;12.844;2022-07-06T02:57:12;4.05;;;2.70;;
22186;SDS011;11259;52.146;12.844;2022-07-06T02:59:37;5.40;;;2.80;;
22186;SDS011;11259;52.146;12.844;2022-07-06T03:02:04;4.07;;;2.35;;
22186;SDS011;11259;52.146;12.844;2022-07-06T03:04:29;3.83;;;2.33;;
22186;SDS011;11259;52.146;12.844;2022-07-06T03:06:55;5.53;;;2.42;;
22186;SDS011;11259;52.146;12.844;2022-07-06T03:09:20;4.75;;;2.13;;
22186;SDS011;11259;52.146;12.844;2022-07-06T03:11:45;8.02;;;2.25;;
22186;SDS011;11259;52.146;12.844;2022-07-06T03:14:11;6.53;;;2.42;;
22186;SDS011;11259;52.146;12.844;2022-07-06T03:16:36;6.65;;;2.58;;
22186;SDS011;11259;52.146;12.844;2022-07-06T03:19:03;4.80;;;2.35;;
22186;SDS011;11259;52.146;12.844;2022-07-06T03:21:28;4.63;;;2.58;;
22186;SDS011;11259;52.146;12.844;2022-07-06T03:23:53;6.63;;;2.72;;
22186;SDS011;11259;52.146;12.844;2022-07-06T03:26:19;7.63;;;2.70;;
22186;SDS011;11259;52.146;12.844;2022-07-06T03:28:44;6.38;;;2.67;;
22186;SDS011;11259;52.146;12.844;2022-07-06T03:31:09;6.00;;;2.50;;
22186;SDS011;11259;52.146;12.844;2022-07-06T03:33:35;3.92;;;2.20;;
22186;SDS011;11259;52.146;12.844;2022-07-06T03:36:02;6.15;;;2.08;;
22186;SDS011;11259;52.146;12.844;2022-07-06T03:38:27;6.38;;;2.45;;
22186;SDS011;11259;52.146;12.844;2022-07-06T03:40:52;5.38;;;2.10;;
22186;SDS011;11259;52.146;12.844;2022-07-06T03:43:18;5.13;;;2.00;;
22186;SDS011;11259;52.146;12.844;2022-07-06T03:45:43;4.03;;;2.17;;
22186;SDS011;11259;52.146;12.844;2022-07-06T03:48:08;6.70;;;2.20;;
22186;SDS011;11259;52.146;12.844;2022-07-06T03:50:34;4.22;;;2.40;;
22186;SDS011;11259;52.146;12.844;2022-07-06T03:53:01;7.60;;;2.38;;
22186;SDS011;11259;52.146;12.844;2022-07-06T03:55:26;5.70;;;2.10;;
22186;SDS011;11259;52.146;12.844;2022-07-06T03:57:52;4.90;;;1.85;;
22186;SDS011;11259;52.146;12.844;2022-07-06T04:00:17;5.03;;;2.25;;
22186;SDS011;11259;52.146;12.844;2022-07-06T04:02:42;5.80;;;2.20;;
22186;SDS011;11259;52.146;12.844;2022-07-06T04:05:08;4.75;;;2.28;;
22186;SDS011;11259;52.146;12.844;2022-07-06T04:07:33;3.90;;;1.90;;
22186;SDS011;11259;52.146;12.844;2022-07-06T04:10:00;5.13;;;1.88;;
22186;SDS011;11259;52.146;12.844;2022-07-06T04:12:25;6.20;;;2.03;;
22186;SDS011;11259;52.146;12.844;2022-07-06T04:14:51;5.03;;;2.38;;
22186;SDS011;11259;52.146;12.844;2022-07-06T04:17:16;4.20;;;1.90;;
22186;SDS011;11259;52.146;12.844;2022-07-06T04:19:41;3.88;;;2.05;;
22186;SDS011;11259;52.146;12.844;2022-07-06T04:22:07;6.32;;;2.05;;
22186;SDS011;11259;52.146;12.844;2022-07-06T04:24:32;6.72;;;2.05;;
22186;SDS011;11259;52.146;12.844;2022-07-06T04:26:59;6.05;;;2.08;;
22186;SDS011;11259;52.146;12.844;2022-07-06T04:29:24;5.45;;;2.28;;
22186;SDS011;11259;52.146;12.844;2022-07-06T04:31:49;6.68;;;1.95;;
22186;SDS011;11259;52.146;12.844;2022-07-06T04:34:15;5.05;;;1.80;;
22186;SDS011;11259;52.146;12.844;2022-07-06T04:36:40;4.97;;;2.10;;
22186;SDS011;11259;52.146;12.844;2022-07-06T04:39:05;5.85;;;2.15;;
22186;SDS011;11259;52.146;12.844;2022-07-06T04:41:31;7.50;;;1.90;;
22186;SDS011;11259;52.146;12.844;2022-07-06T04:43:57;5.05;;;1.92;;
22186;SDS011;11259;52.146;12.844;2022-07-06T04:46:23;4.30;;;1.83;;
22186;SDS011;11259;52.146;12.844;2022-07-06T04:48:48;5.10;;;1.60;;
22186;SDS011;11259;52.146;12.844;2022-07-06T04:51:13;6.72;;;1.60;;
22186;SDS011;11259;52.146;12.844;2022-07-06T04:53:39;8.00;;;1.85;;
22186;SDS011;11259;52.146;12.844;2022-07-06T04:56:04;6.80;;;1.88;;
22186;SDS011;11259;52.146;12.844;2022-07-06T04:58:29;7.88;;;1.85;;
22186;SDS011;11259;52.146;12.844;2022-07-06T05:00:56;10.23;;;2.10;;
22186;SDS011;11259;52.146;12.844;2022-07-06T05:03:21;5.72;;;1.70;;
22186;SDS011;11259;52.146;12.844;2022-07-06T05:05:46;6.72;;;1.50;;
22186;SDS011;11259;52.146;12.844;2022-07-06T05:08:12;6.55;;;2.00;;
22186;SDS011;11259;52.146;12.844;2022-07-06T05:10:37;4.97;;;1.60;;
22186;SDS011;11259;52.146;12.844;2022-07-06T05:13:02;5.50;;;1.70;;
22186;SDS011;11259;52.146;12.844;2022-07-06T05:15:28;6.43;;;1.80;;
22186;SDS011;11259;52.146;12.844;2022-07-06T05:17:54;5.28;;;1.60;;
22186;SDS011;11259;52.146;12.844;2022-07-06T05:20:20;4.07;;;1.42;;
22186;SDS011;11259;52.146;12.844;2022-07-06T05:22:45;2.95;;;1.23;;
22186;SDS011;11259;52.146;12.844;2022-07-06T05:25:10;2.47;;;1.33;;
22186;SDS011;11259;52.146;12.844;2022-07-06T05:27:36;4.82;;;1.38;;
22186;SDS011;11259;52.146;12.844;2022-07-06T05:30:01;3.63;;;1.48;;
22186;SDS011;11259;52.146;12.844;2022-07-06T05:32:27;3.30;;;1.48;;
22186;SDS011;11259;52.146;12.844;2022-07-06T05:34:53;4.53;;;1.38;;
22186;SDS011;11259;52.146;12.844;2022-07-06T05:37:19;5.63;;;1.35;;
22186;SDS011;11259;52.146;12.844;2022-07-06T05:39:44;4.40;;;1.48;;
22186;SDS011;11259;52.146;12.844;2022-07-06T05:42:09;4.47;;;1.20;;
22186;SDS011;11259;52.146;12.844;2022-07-06T05:44:34;3.72;;;1.20;;
22186;SDS011;11259;52.146;12.844;2022-07-06T05:47:00;5.22;;;1.30;;
22186;SDS011;11259;52.146;12.844;2022-07-06T05:49:25;7.03;;;1.35;;
22186;SDS011;11259;52.146;12.844;2022-07-06T05:51:52;6.60;;;1.50;;
22186;SDS011;11259;52.146;12.844;2022-07-06T05:54:17;3.95;;;1.27;;
22186;SDS011;11259;52.146;12.844;2022-07-06T05:56:42;5.32;;;1.33;;
22186;SDS011;11259;52.146;12.844;2022-07-06T05:59:08;4.68;;;1.30;;
22186;SDS011;11259;52.146;12.844;2022-07-06T06:01:33;4.15;;;1.33;;
22186;SDS011;11259;52.146;12.844;2022-07-06T06:03:58;4.25;;;1.48;;
22186;SDS011;11259;52.146;12.844;2022-07-06T06:06:24;4.70;;;1.30;;
22186;SDS011;11259;52.146;12.844;2022-07-06T06:08:51;4.45;;;1.85;;
22186;SDS011;11259;52.146;12.844;2022-07-06T06:11:16;6.78;;;1.58;;
22186;SDS011;11259;52.146;12.844;2022-07-06T06:13:42;5.50;;;1.40;;
22186;SDS011;11259;52.146;12.844;2022-07-06T06:16:07;4.15;;;1.23;;
22186;SDS011;11259;52.146;12.844;2022-07-06T06:18:32;4.32;;;1.23;;
22186;SDS011;11259;52.146;12.844;2022-07-06T06:20:58;4.25;;;1.33;;
22186;SDS011;11259;52.146;12.844;2022-07-06T06:23:23;5.53;;;1.42;;
22186;SDS011;11259;52.146;12.844;2022-07-06T06:25:50;5.50;;;1.40;;
22186;SDS011;11259;52.146;12.844;2022-07-06T06:28:15;4.25;;;1.35;;
22186;SDS011;11259;52.146;12.844;2022-07-06T06:30:41;4.88;;;1.45;;
22186;SDS011;11259;52.146;12.844;2022-07-06T06:33:10;3.58;;;1.23;;
22186;SDS011;11259;52.146;12.844;2022-07-06T06:35:36;3.05;;;1.00;;
22186;SDS011;11259;52.146;12.844;2022-07-06T06:38:02;4.53;;;1.10;;
22186;SDS011;11259;52.146;12.844;2022-07-06T06:40:27;4.68;;;1.20;;
22186;SDS011;11259;52.146;12.844;2022-07-06T06:42:54;3.17;;;1.02;;
22186;SDS011;11259;52.146;12.844;2022-07-06T06:45:19;3.50;;;1.20;;
22186;SDS011;11259;52.146;12.844;2022-07-06T06:47:45;3.97;;;1.20;;
22186;SDS011;11259;52.146;12.844;2022-07-06T06:50:10;2.80;;;1.10;;
22186;SDS011;11259;52.146;12.844;2022-07-06T06:52:36;3.40;;;1.40;;
22186;SDS011;11259;52.146;12.844;2022-07-06T06:55:01;3.47;;;1.30;;
22186;SDS011;11259;52.146;12.844;2022-07-06T06:57:26;3.28;;;1.30;;
22186;SDS011;11259;52.146;12.844;2022-07-06T06:59:53;1.63;;;0.90;;
22186;SDS011;11259;52.146;12.844;2022-07-06T07:02:18;3.35;;;1.30;;
22186;SDS011;11259;52.146;12.844;2022-07-06T07:04:44;3.92;;;0.95;;
22186;SDS011;11259;52.146;12.844;2022-07-06T07:07:09;5.38;;;1.25;;
22186;SDS011;11259;52.146;12.844;2022-07-06T07:09:34;5.50;;;1.52;;
22186;SDS011;11259;52.146;12.844;2022-07-06T07:12:00;2.35;;;1.10;;
22186;SDS011;11259;52.146;12.844;2022-07-06T07:14:25;6.90;;;1.33;;
22186;SDS011;11259;52.146;12.844;2022-07-06T07:16:52;5.72;;;1.13;;
22186;SDS011;11259;52.146;12.844;2022-07-06T07:19:17;6.70;;;1.17;;
22186;SDS011;11259;52.146;12.844;2022-07-06T07:21:42;5.28;;;1.35;;
22186;SDS011;11259;52.146;12.844;2022-07-06T07:24:08;8.57;;;1.40;;
22186;SDS011;11259;52.146;12.844;2022-07-06T07:26:33;4.28;;;1.45;;
22186;SDS011;11259;52.146;12.844;2022-07-06T07:28:58;5.22;;;1.48;;
22186;SDS011;11259;52.146;12.844;2022-07-06T07:31:24;6.78;;;1.20;;
22186;SDS011;11259;52.146;12.844;2022-07-06T07:33:50;3.40;;;1.10;;
22186;SDS011;11259;52.146;12.844;2022-07-06T07:36:16;6.35;;;1.33;;
22186;SDS011;11259;52.146;12.844;2022-07-06T07:38:41;3.97;;;1.20;;
22186;SDS011;11259;52.146;12.844;2022-07-06T07:41:06;5.55;;;1.10;;
22186;SDS011;11259;52.146;12.844;2022-07-06T07:43:32;2.42;;;1.20;;
22186;SDS011;11259;52.146;12.844;2022-07-06T07:45:57;4.78;;;1.10;;
22186;SDS011;11259;52.146;12.844;2022-07-06T07:48:23;5.32;;;1.40;;
22186;SDS011;11259;52.146;12.844;2022-07-06T07:50:49;3.08;;;1.02;;
22186;SDS011;11259;52.146;12.844;2022-07-06T07:53:15;3.45;;;1.25;;
22186;SDS011;11259;52.146;12.844;2022-07-06T07:55:40;3.22;;;1.33;;
22186;SDS011;11259;52.146;12.844;2022-07-06T07:58:05;1.38;;;1.00;;
22186;SDS011;11259;52.146;12.844;2022-07-06T08:00:31;4.38;;;1.30;;
22186;SDS011;11259;52.146;12.844;2022-07-06T08:02:56;5.53;;;1.30;;
22186;SDS011;11259;52.146;12.844;2022-07-06T08:05:21;6.35;;;1.23;;
22186;SDS011;11259;52.146;12.844;2022-07-06T08:07:48;5.07;;;1.20;;
22186;SDS011;11259;52.146;12.844;2022-07-06T08:10:14;5.45;;;1.27;;
22186;SDS011;11259;52.146;12.844;2022-07-06T08:12:39;5.72;;;1.13;;
22186;SDS011;11259;52.146;12.844;2022-07-06T08:15:05;3.88;;;1.13;;
22186;SDS011;11259;52.146;12.844;2022-07-06T08:17:31;6.30;;;1.40;;
22186;SDS011;11259;52.146;12.844;2022-07-06T08:19:56;4.60;;;1.10;;
22186;SDS011;11259;52.146;12.844;2022-07-06T08:22:22;5.10;;;1.30;;
22186;SDS011;11259;52.146;12.844;2022-07-06T08:24:49;4.88;;;1.20;;
22186;SDS011;11259;52.146;12.844;2022-07-06T08:27:15;7.13;;;1.38;;
22186;SDS011;11259;52.146;12.844;2022-07-06T08:29:40;4.45;;;1.25;;
22186;SDS011;11259;52.146;12.844;2022-07-06T08:32:06;2.88;;;1.25;;
22186;SDS011;11259;52.146;12.844;2022-07-06T08:34:31;4.63;;;1.40;;
22186;SDS011;11259;52.146;12.844;2022-07-06T08:36:56;2.65;;;1.20;;
22186;SDS011;11259;52.146;12.844;2022-07-06T08:39:22;5.00;;;1.45;;
22186;SDS011;11259;52.146;12.844;2022-07-06T08:41:49;3.10;;;1.02;;
22186;SDS011;11259;52.146;12.844;2022-07-06T08:44:15;4.00;;;1.20;;
22186;SDS011;11259;52.146;12.844;2022-07-06T08:46:40;4.40;;;1.17;;
22186;SDS011;11259;52.146;12.844;2022-07-06T08:49:07;5.90;;;1.20;;
22186;SDS011;11259;52.146;12.844;2022-07-06T08:51:33;5.68;;;1.20;;
22186;SDS011;11259;52.146;12.844;2022-07-06T08:53:59;4.22;;;1.20;;
22186;SDS011;11259;52.146;12.844;2022-07-06T08:56:27;8.45;;;1.15;;
22186;SDS011;11259;52.146;12.844;2022-07-06T08:58:54;6.60;;;1.10;;
22186;SDS011;11259;52.146;12.844;2022-07-06T09:01:19;3.72;;;1.10;;
22186;SDS011;11259;52.146;12.844;2022-07-06T09:03:45;5.63;;;1.42;;
22186;SDS011;11259;52.146;12.844;2022-07-06T09:06:11;4.28;;;1.00;;
22186;SDS011;11259;52.146;12.844;2022-07-06T09:08:38;4.25;;;1.10;;
22186;SDS011;11259;52.146;12.844;2022-07-06T09:11:03;5.25;;;1.50;;
22186;SDS011;11259;52.146;12.844;2022-07-06T09:13:29;3.97;;;1.23;;
22186;SDS011;11259;52.146;12.844;2022-07-06T09:15:55;1.90;;;0.88;;
22186;SDS011;11259;52.146;12.844;2022-07-06T09:18:35;2.50;;;0.80;;
22186;SDS011;11259;52.146;12.844;2022-07-06T09:21:01;4.40;;;0.98;;
22186;SDS011;11259;52.146;12.844;2022-07-06T09:23:26;3.13;;;1.00;;
22186;SDS011;11259;52.146;12.844;2022-07-06T09:25:52;2.05;;;0.93;;
22186;SDS011;11259;52.146;12.844;2022-07-06T09:28:17;3.35;;;0.80;;
22186;SDS011;11259;52.146;12.844;2022-07-06T09:30:42;2.22;;;0.85;;
22186;SDS011;11259;52.146;12.844;2022-07-06T09:33:09;5.00;;;1.23;;
22186;SDS011;11259;52.146;12.844;2022-07-06T09:35:35;2.80;;;1.00;;
22186;SDS011;11259;52.146;12.844;2022-07-06T09:38:05;5.47;;;1.20;;
22186;SDS011;11259;52.146;12.844;2022-07-06T09:40:32;5.97;;;2.60;;
22186;SDS011;11259;52.146;12.844;2022-07-06T09:43:12;5.53;;;1.80;;
22186;SDS011;11259;52.146;12.844;2022-07-06T09:45:40;4.55;;;1.20;;
22186;SDS011;11259;52.146;12.844;2022-07-06T09:48:06;6.22;;;1.13;;
22186;SDS011;11259;52.146;12.844;2022-07-06T09:50:38;4.40;;;1.10;;
22186;SDS011;11259;52.146;12.844;2022-07-06T09:53:04;2.95;;;1.02;;
22186;SDS011;11259;52.146;12.844;2022-07-06T09:55:29;2.47;;;0.95;;
22186;SDS011;11259;52.146;12.844;2022-07-06T09:57:55;2.03;;;1.02;;
22186;SDS011;11259;52.146;12.844;2022-07-06T10:00:20;4.90;;;1.10;;
22186;SDS011;11259;52.146;12.844;2022-07-06T10:02:45;7.72;;;1.58;;
22186;SDS011;11259;52.146;12.844;2022-07-06T10:05:13;3.58;;;1.10;;
22186;SDS011;11259;52.146;12.844;2022-07-06T10:07:39;3.20;;;1.00;;
22186;SDS011;11259;52.146;12.844;2022-07-06T10:10:04;3.28;;;1.00;;
22186;SDS011;11259;52.146;12.844;2022-07-06T10:12:30;4.93;;;1.23;;
22186;SDS011;11259;52.146;12.844;2022-07-06T10:14:56;3.78;;;1.10;;
22186;SDS011;11259;52.146;12.844;2022-07-06T10:17:21;4.13;;;1.05;;
22186;SDS011;11259;52.146;12.844;2022-07-06T10:19:47;3.78;;;1.08;;
22186;SDS011;11259;52.146;12.844;2022-07-06T10:22:16;4.72;;;1.10;;
22186;SDS011;11259;52.146;12.844;2022-07-06T10:24:42;3.88;;;1.08;;
22186;SDS011;11259;52.146;12.844;2022-07-06T10:27:08;3.88;;;0.85;;
22186;SDS011;11259;52.146;12.844;2022-07-06T10:29:34;2.97;;;0.90;;
22186;SDS011;11259;52.146;12.844;2022-07-06T10:32:00;2.30;;;0.70;;
22186;SDS011;11259;52.146;12.844;2022-07-06T10:34:25;2.78;;;0.93;;
22186;SDS011;11259;52.146;12.844;2022-07-06T10:36:51;2.67;;;1.00;;
22186;SDS011;11259;52.146;12.844;2022-07-06T10:39:31;3.88;;;1.10;;
22186;SDS011;11259;52.146;12.844;2022-07-06T10:41:57;3.35;;;1.02;;
22186;SDS011;11259;52.146;12.844;2022-07-06T10:44:24;1.30;;;0.82;;
22186;SDS011;11259;52.146;12.844;2022-07-06T10:46:51;1.90;;;1.02;;
22186;SDS011;11259;52.146;12.844;2022-07-06T10:49:17;2.53;;;1.10;;
22186;SDS011;11259;52.146;12.844;2022-07-06T10:51:43;2.75;;;1.20;;
22186;SDS011;11259;52.146;12.844;2022-07-06T10:54:09;5.18;;;1.02;;
22186;SDS011;11259;52.146;12.844;2022-07-06T10:56:37;5.53;;;1.20;;
22186;SDS011;11259;52.146;12.844;2022-07-06T10:59:08;3.33;;;0.93;;
22186;SDS011;11259;52.146;12.844;2022-07-06T11:01:34;2.33;;;1.10;;
22186;SDS011;11259;52.146;12.844;2022-07-06T11:04:06;2.38;;;0.80;;
22186;SDS011;11259;52.146;12.844;2022-07-06T11:06:33;3.30;;;1.10;;
22186;SDS011;11259;52.146;12.844;2022-07-06T11:09:01;3.67;;;1.10;;
22186;SDS011;11259;52.146;12.844;2022-07-06T11:11:38;3.42;;;1.23;;
22186;SDS011;11259;52.146;12.844;2022-07-06T11:14:05;3.28;;;0.90;;
22186;SDS011;11259;52.146;12.844;2022-07-06T11:16:32;3.97;;;1.38;;
22186;SDS011;11259;52.146;12.844;2022-07-06T11:19:00;3.05;;;0.95;;
22186;SDS011;11259;52.146;12.844;2022-07-06T11:21:32;3.17;;;1.17;;
22186;SDS011;11259;52.146;12.844;2022-07-06T11:23:59;5.28;;;1.20;;
22186;SDS011;11259;52.146;12.844;2022-07-06T11:26:25;3.60;;;1.38;;
22186;SDS011;11259;52.146;12.844;2022-07-06T11:28:53;4.70;;;1.00;;
22186;SDS011;11259;52.146;12.844;2022-07-06T11:31:19;4.65;;;1.10;;
22186;SDS011;11259;52.146;12.844;2022-07-06T11:33:45;2.80;;;1.10;;
22186;SDS011;11259;52.146;12.844;2022-07-06T11:36:11;4.90;;;1.00;;
22186;SDS011;11259;52.146;12.844;2022-07-06T11:38:37;3.92;;;1.00;;
22186;SDS011;11259;52.146;12.844;2022-07-06T11:41:03;4.40;;;1.00;;
22186;SDS011;11259;52.146;12.844;2022-07-06T11:43:28;3.10;;;1.10;;
22186;SDS011;11259;52.146;12.844;2022-07-06T11:45:55;4.05;;;1.10;;
22186;SDS011;11259;52.146;12.844;2022-07-06T11:48:20;4.40;;;1.30;;
22186;SDS011;11259;52.146;12.844;2022-07-06T11:50:56;4.53;;;1.30;;
22186;SDS011;11259;52.146;12.844;2022-07-06T11:53:23;4.30;;;1.15;;
22186;SDS011;11259;52.146;12.844;2022-07-06T11:55:48;4.18;;;1.10;;
22186;SDS011;11259;52.146;12.844;2022-07-06T11:58:13;3.83;;;1.20;;
22186;SDS011;11259;52.146;12.844;2022-07-06T12:00:39;1.63;;;0.88;;
22186;SDS011;11259;52.146;12.844;2022-07-06T12:03:06;1.88;;;0.95;;
22186;SDS011;11259;52.146;12.844;2022-07-06T12:05:31;1.88;;;0.80;;
22186;SDS011;11259;52.146;12.844;2022-07-06T12:08:03;2.17;;;0.80;;
22186;SDS011;11259;52.146;12.844;2022-07-06T12:10:31;2.53;;;0.80;;
22186;SDS011;11259;52.146;12.844;2022-07-06T12:13:01;1.65;;;0.60;;
22186;SDS011;11259;52.146;12.844;2022-07-06T12:15:27;1.88;;;0.80;;
22186;SDS011;11259;52.146;12.844;2022-07-06T12:17:53;0.93;;;0.60;;
22186;SDS011;11259;52.146;12.844;2022-07-06T12:20:19;1.65;;;0.70;;
22186;SDS011;11259;52.146;12.844;2022-07-06T12:22:45;1.27;;;0.60;;
22186;SDS011;11259;52.146;12.844;2022-07-06T12:25:10;7.53;;;0.65;;
22186;SDS011;11259;52.146;12.844;2022-07-06T12:27:36;2.85;;;0.60;;
22186;SDS011;11259;52.146;12.844;2022-07-06T12:30:07;3.28;;;0.88;;
22186;SDS011;11259;52.146;12.844;2022-07-06T12:32:33;5.53;;;0.73;;
22186;SDS011;11259;52.146;12.844;2022-07-06T12:35:02;1.73;;;0.63;;
22186;SDS011;11259;52.146;12.844;2022-07-06T12:37:29;0.77;;;0.45;;
22186;SDS011;11259;52.146;12.844;2022-07-06T12:39:54;2.10;;;0.80;;
22186;SDS011;11259;52.146;12.844;2022-07-06T12:42:20;1.60;;;0.60;;
22186;SDS011;11259;52.146;12.844;2022-07-06T12:44:46;1.73;;;0.60;;
22186;SDS011;11259;52.146;12.844;2022-07-06T12:47:12;4.05;;;0.60;;
22186;SDS011;11259;52.146;12.844;2022-07-06T12:49:38;2.95;;;0.70;;
22186;SDS011;11259;52.146;12.844;2022-07-06T12:52:08;1.42;;;0.57;;
22186;SDS011;11259;52.146;12.844;2022-07-06T12:54:36;0.63;;;0.60;;
22186;SDS011;11259;52.146;12.844;2022-07-06T12:57:09;1.55;;;0.60;;
22186;SDS011;11259;52.146;12.844;2022-07-06T12:59:36;4.00;;;0.77;;
22186;SDS011;11259;52.146;12.844;2022-07-06T13:02:04;2.83;;;0.57;;
22186;SDS011;11259;52.146;12.844;2022-07-06T13:04:30;1.83;;;0.70;;
22186;SDS011;11259;52.146;12.844;2022-07-06T13:06:56;4.85;;;0.70;;
22186;SDS011;11259;52.146;12.844;2022-07-06T13:09:22;1.50;;;0.52;;
22186;SDS011;11259;52.146;12.844;2022-07-06T13:11:49;1.75;;;0.65;;
22186;SDS011;11259;52.146;12.844;2022-07-06T13:14:14;0.55;;;0.50;;
22186;SDS011;11259;52.146;12.844;2022-07-06T13:16:40;9.40;;;1.13;;
22186;SDS011;11259;52.146;12.844;2022-07-06T13:19:05;4.80;;;0.80;;
22186;SDS011;11259;52.146;12.844;2022-07-06T13:21:31;2.30;;;0.60;;
22186;SDS011;11259;52.146;12.844;2022-07-06T13:23:56;3.42;;;0.60;;
22186;SDS011;11259;52.146;12.844;2022-07-06T13:26:21;5.80;;;0.60;;
22186;SDS011;11259;52.146;12.844;2022-07-06T13:28:48;6.10;;;1.17;;
22186;SDS011;11259;52.146;12.844;2022-07-06T13:31:13;8.90;;;1.05;;
22186;SDS011;11259;52.146;12.844;2022-07-06T13:33:39;3.70;;;0.70;;
22186;SDS011;11259;52.146;12.844;2022-07-06T13:36:04;2.55;;;0.60;;
22186;SDS011;11259;52.146;12.844;2022-07-06T13:38:30;2.25;;;0.80;;
22186;SDS011;11259;52.146;12.844;2022-07-06T13:40:55;6.68;;;0.80;;
22186;SDS011;11259;52.146;12.844;2022-07-06T13:43:21;1.10;;;0.60;;
22186;SDS011;11259;52.146;12.844;2022-07-06T13:45:47;1.83;;;0.60;;
22186;SDS011;11259;52.146;12.844;2022-07-06T13:48:13;1.90;;;0.60;;
22186;SDS011;11259;52.146;12.844;2022-07-06T13:50:38;2.20;;;0.80;;
22186;SDS011;11259;52.146;12.844;2022-07-06T13:53:03;3.58;;;0.90;;
22186;SDS011;11259;52.146;12.844;2022-07-06T13:55:29;4.93;;;0.70;;
22186;SDS011;11259;52.146;12.844;2022-07-06T13:57:54;3.95;;;0.80;;
22186;SDS011;11259;52.146;12.844;2022-07-06T14:00:19;2.67;;;0.60;;
22186;SDS011;11259;52.146;12.844;2022-07-06T14:02:46;2.85;;;0.82;;
22186;SDS011;11259;52.146;12.844;2022-07-06T14:05:12;1.95;;;0.50;;
22186;SDS011;11259;52.146;12.844;2022-07-06T14:07:38;2.75;;;0.70;;
22186;SDS011;11259;52.146;12.844;2022-07-06T14:10:03;4.35;;;0.85;;
22186;SDS011;11259;52.146;12.844;2022-07-06T14:12:29;1.35;;;0.70;;
22186;SDS011;11259;52.146;12.844;2022-07-06T14:14:55;3.88;;;0.70;;
22186;SDS011;11259;52.146;12.844;2022-07-06T14:17:20;2.55;;;0.73;;
22186;SDS011;11259;52.146;12.844;2022-07-06T14:19:47;4.25;;;0.60;;
22186;SDS011;11259;52.146;12.844;2022-07-06T14:22:12;1.63;;;0.60;;
22186;SDS011;11259;52.146;12.844;2022-07-06T14:24:38;3.40;;;0.63;;
22186;SDS011;11259;52.146;12.844;2022-07-06T14:27:03;0.95;;;0.70;;